Time;durP1;ratioP1;P1;durP2;ratioP2;P2;SDS_P1;SDS_P2;PMS_P1;PMS_P2;Temp;Humidity;BMP_temperature;BMP_pressure;BME280_temperature;BME280_humidity;BME280_pressure;Samples;Min_cycle;Max_cycle;Signal;HPM_P1;HPM_P2
2022/01/14 00:01:26;;;;;;;;;8.00;7.33;;;;;10.74;47.22;103611.78;6369932;22;45305;-90
2022/01/14 00:03:51;;;;;;;;;8.00;8.00;;;;;10.49;47.11;103564.47;6369773;22;45616;-90
2022/01/14 00:06:17;;;;;;;;;6.67;6.00;;;;;10.68;46.60;103592.44;6370191;22;47111;-89
2022/01/14 00:08:42;;;;;;;;;9.33;6.00;;;;;10.64;47.20;103581.88;6370278;22;46214;-90
2022/01/14 00:11:14;;;;;;;;;7.67;7.00;;;;;10.56;47.20;103559.94;6369803;22;45657;-90
2022/01/14 00:16:06;;;;;;;;;9.33;9.33;;;;;10.51;47.23;103546.72;6369729;22;45832;-89
2022/01/14 00:18:32;;;;;;;;;5.33;4.67;;;;;10.66;47.27;103560.63;6369238;22;45359;-90
2022/01/14 00:20:59;;;;;;;;;5.33;5.00;;;;;10.53;46.61;103549.38;6343117;22;45334;-89
2022/01/14 00:23:30;;;;;;;;;5.67;5.00;;;;;10.60;46.90;103558.97;6344630;22;45255;-89
2022/01/14 00:34:07;;;;;;;;;12.33;8.67;;;;;10.55;47.12;103542.28;6351518;22;45237;-89
2022/01/14 00:36:33;;;;;;;;;11.67;8.00;;;;;10.54;47.05;103544.03;6342831;22;45626;-89
2022/01/14 00:38:58;;;;;;;;;6.67;6.67;;;;;10.58;46.95;103558.13;6342496;22;45456;-89
2022/01/14 00:41:24;;;;;;;;;7.00;6.00;;;;;10.55;46.78;103556.44;6343341;22;45381;-89
2022/01/14 00:43:52;;;;;;;;;4.67;4.00;;;;;10.53;46.86;103542.28;6343332;22;45505;-90
2022/01/14 00:46:18;;;;;;;;;12.00;8.33;;;;;10.48;46.80;103528.22;6345689;22;46330;-89
2022/01/14 00:48:43;;;;;;;;;7.67;7.00;;;;;10.62;46.65;103556.25;6342130;22;45356;-90
2022/01/14 00:51:09;;;;;;;;;6.33;5.67;;;;;10.59;46.71;103551.03;6318435;22;45277;-89
2022/01/14 00:53:34;;;;;;;;;9.33;7.33;;;;;10.52;47.10;103543.22;6344466;22;45435;-89
2022/01/14 00:56:08;;;;;;;;;9.67;7.00;;;;;10.64;47.02;103563.28;6344329;22;46512;-90
2022/01/14 01:01:17;;;;;;;;;5.33;5.33;;;;;10.54;46.63;103536.06;6353093;22;45347;-91
2022/01/14 01:03:43;;;;;;;;;6.33;6.33;;;;;10.55;47.05;103532.53;6318500;22;45348;-90
2022/01/14 01:06:08;;;;;;;;;6.67;6.00;;;;;10.49;46.76;103526.44;6344498;22;47043;-89
2022/01/14 01:08:35;;;;;;;;;6.33;6.33;;;;;10.52;46.69;103537.91;6343527;22;45402;-90
2022/01/14 01:11:03;;;;;;;;;6.00;6.00;;;;;10.72;46.87;103570.22;6345075;22;45372;-90
2022/01/14 01:13:33;;;;;;;;;12.00;7.67;;;;;10.61;46.81;103557.19;6400317;22;45354;-89
2022/01/14 01:15:59;;;;;;;;;6.67;6.00;;;;;10.45;47.11;103522.97;6344744;22;48093;-89
2022/01/14 01:18:24;;;;;;;;;5.33;5.00;;;;;10.50;46.83;103539.66;6343824;22;45614;-89
2022/01/14 01:20:50;;;;;;;;;7.67;7.33;;;;;10.54;46.67;103541.38;6347531;22;45281;-90
2022/01/14 01:23:16;;;;;;;;;9.33;6.00;;;;;10.61;46.67;103550.09;6347936;22;45419;-90
2022/01/14 01:25:47;;;;;;;;;6.00;5.00;;;;;10.52;46.62;103531.72;6344326;22;48566;-89
2022/01/14 01:28:12;;;;;;;;;7.67;7.67;;;;;10.57;46.27;103544.88;6345351;22;45597;-90
2022/01/14 01:30:50;;;;;;;;;7.00;6.00;;;;;10.43;46.55;103523.00;6344183;22;45273;-90
2022/01/14 01:33:16;;;;;;;;;6.00;6.00;;;;;10.39;47.25;103515.13;6348123;22;45452;-90
2022/01/14 01:35:42;;;;;;;;;6.00;5.67;;;;;10.49;46.55;103543.25;6343160;22;48158;-90
2022/01/14 01:38:08;;;;;;;;;9.33;7.33;;;;;10.53;47.05;103558.22;6345304;22;45440;-89
2022/01/14 01:40:33;;;;;;;;;8.00;8.00;;;;;10.54;47.12;103559.97;6317897;22;45319;-91
2022/01/14 01:43:03;;;;;;;;;8.67;6.33;;;;;10.47;46.58;103542.38;6344674;22;45418;-90
2022/01/14 01:45:28;;;;;;;;;6.00;6.00;;;;;10.41;46.68;103524.81;6345992;22;48287;-90
2022/01/14 01:47:54;;;;;;;;;7.00;7.00;;;;;10.57;46.90;103550.19;6344238;22;45599;-89
2022/01/14 01:50:24;;;;;;;;;8.00;8.00;;;;;10.54;46.82;103557.31;6343779;22;45309;-90
2022/01/14 01:52:50;;;;;;;;;6.00;5.33;;;;;10.55;46.86;103563.50;6345085;22;45601;-89
2022/01/14 01:55:15;;;;;;;;;6.33;6.33;;;;;10.49;47.09;103548.56;6344019;22;47025;-90
2022/01/14 01:57:42;;;;;;;;;4.00;4.00;;;;;10.52;47.10;103564.44;6318056;22;45391;-89
2022/01/14 02:00:10;;;;;;;;;4.00;4.00;;;;;10.52;47.47;103564.44;6371003;22;45469;-89
2022/01/14 02:02:36;;;;;;;;;7.00;4.00;;;;;10.50;47.06;103557.41;6343978;22;45420;-90
2022/01/14 02:05:02;;;;;;;;;9.00;7.00;;;;;10.50;47.27;103558.25;6343936;22;47228;-89
2022/01/14 02:07:27;;;;;;;;;7.67;5.67;;;;;10.47;47.20;103550.34;6345061;22;45282;-90
2022/01/14 02:09:53;;;;;;;;;6.33;6.00;;;;;10.53;46.81;103550.25;6343707;22;45500;-90
2022/01/14 02:12:19;;;;;;;;;7.33;5.33;;;;;10.61;47.17;103558.06;6344249;22;45425;-90
2022/01/14 02:15:07;;;;;;;;;11.00;6.00;;;;;10.51;47.03;103529.91;6344370;22;48189;-90
2022/01/14 02:23:05;;;;;;;;;5.33;4.00;;;;;10.57;46.94;103551.06;6268721;22;45429;-90
2022/01/14 02:25:31;;;;;;;;;10.67;5.00;;;;;10.46;46.70;103538.00;6217820;22;47465;-90
2022/01/14 02:28:00;;;;;;;;;8.00;6.33;;;;;10.65;46.67;103574.78;6218999;22;45240;-90
2022/01/14 02:30:26;;;;;;;;;6.00;5.67;;;;;10.41;46.60;103546.03;6219125;22;45392;-90
2022/01/14 02:32:51;;;;;;;;;6.00;6.00;;;;;10.55;46.92;103564.38;6193253;22;45397;-89
2022/01/14 02:35:17;;;;;;;;;7.33;6.00;;;;;10.53;46.88;103563.53;6218243;22;46166;-89
2022/01/14 02:37:42;;;;;;;;;6.67;5.00;;;;;10.48;46.52;103557.41;6243359;22;45846;-89
2022/01/14 02:40:09;;;;;;;;;6.00;5.67;;;;;10.38;46.57;103531.97;6218802;22;45577;-88
2022/01/14 02:42:34;;;;;;;;;5.00;5.00;;;;;10.47;46.77;103560.97;6244149;22;45353;-89
2022/01/14 02:45:04;;;;;;;;;4.67;4.33;;;;;10.54;46.75;103564.41;6217704;22;48093;-90
2022/01/14 02:47:30;;;;;;;;;6.33;4.67;;;;;10.44;46.42;103540.66;6194703;22;45372;-90
2022/01/14 02:49:55;;;;;;;;;7.00;5.67;;;;;10.44;46.47;103531.84;6192090;22;45775;-90
2022/01/14 02:52:29;;;;;;;;;5.33;5.33;;;;;10.37;46.78;103523.13;6192726;22;45753;-90
2022/01/14 02:55:14;;;;;;;;;6.00;6.00;;;;;10.38;46.61;103529.31;6219338;22;46831;-90
2022/01/14 02:57:44;;;;;;;;;4.67;4.67;;;;;10.48;46.63;103544.13;6276075;22;45659;-90
2022/01/14 03:00:10;;;;;;;;;3.33;1.67;;;;;10.28;46.45;103518.91;6344362;22;45371;-90
2022/01/14 03:02:36;;;;;;;;;4.00;4.00;;;;;10.51;46.77;103554.69;6317753;22;45487;-90
2022/01/14 03:05:02;;;;;;;;;5.67;5.67;;;;;10.48;46.60;103553.88;6316882;22;48166;-89
2022/01/14 03:07:28;;;;;;;;;8.67;5.33;;;;;10.29;46.13;103531.28;6317957;22;45302;-90
2022/01/14 03:09:53;;;;;;;;;5.00;5.00;;;;;10.38;46.03;103535.50;6318134;22;45578;-90
2022/01/14 03:12:19;;;;;;;;;5.00;5.00;;;;;10.37;46.24;103527.56;6344110;22;45301;-90
2022/01/14 03:14:45;;;;;;;;;5.00;3.67;;;;;10.37;46.36;103528.44;6343618;22;47168;-90
2022/01/14 03:17:10;;;;;;;;;6.00;4.00;;;;;10.33;46.52;103514.34;6318143;22;45279;-90
2022/01/14 03:19:36;;;;;;;;;5.00;4.00;;;;;10.40;46.33;103523.06;6317191;22;45337;-90
2022/01/14 03:22:07;;;;;;;;;9.00;8.33;;;;;10.28;46.24;103502.97;6317973;22;45289;-90
2022/01/14 03:27:02;;;;;;;;;3.00;3.00;;;;;10.39;46.50;103521.31;6341367;22;45336;-90
2022/01/14 03:29:27;;;;;;;;;4.00;3.33;;;;;10.48;46.58;103524.69;6343717;22;45461;-90
2022/01/14 03:31:52;;;;;;;;;5.00;5.00;;;;;10.46;46.46;103522.06;6343375;22;45440;-90
2022/01/14 03:34:18;;;;;;;;;6.67;4.00;;;;;10.20;46.01;103489.00;6317268;22;47207;-91
2022/01/14 03:36:44;;;;;;;;;5.67;5.67;;;;;10.25;46.37;103503.03;6343432;22;45302;-91
2022/01/14 03:39:09;;;;;;;;;3.00;3.00;;;;;10.28;46.87;103505.63;6343636;22;45388;-90
2022/01/14 03:41:35;;;;;;;;;5.33;4.00;;;;;10.20;46.12;103487.22;6317982;22;45309;-90
2022/01/14 03:44:00;;;;;;;;;3.67;3.33;;;;;10.29;46.35;103503.84;6343871;22;46296;-89
2022/01/14 03:46:26;;;;;;;;;3.33;3.33;;;;;10.28;46.55;103505.63;6343875;22;45351;-90
2022/01/14 03:48:52;;;;;;;;;5.33;4.00;;;;;10.26;47.03;103499.50;6317498;22;45641;-90
2022/01/14 03:51:19;;;;;;;;;4.00;3.67;;;;;10.25;46.79;103503.03;6317982;22;45654;-89
2022/01/14 03:53:46;;;;;;;;;3.00;3.00;;;;;10.27;46.29;103506.53;6317073;22;46974;-90
2022/01/14 03:56:11;;;;;;;;;3.00;3.00;;;;;10.28;46.67;103508.28;6317886;22;45471;-90
2022/01/14 03:58:37;;;;;;;;;2.67;2.67;;;;;10.17;46.51;103494.38;6342746;22;45387;-88
2022/01/14 04:01:02;;;;;;;;;6.00;6.00;;;;;10.28;46.77;103504.75;6344487;22;45287;-89
2022/01/14 04:03:28;;;;;;;;;4.00;3.00;;;;;10.19;46.96;103487.25;6344269;22;46544;-89
2022/01/14 04:05:53;;;;;;;;;4.67;3.00;;;;;10.30;45.97;103503.81;6343690;22;45451;-91
2022/01/14 04:08:19;;;;;;;;;4.00;4.00;;;;;10.19;46.38;103484.59;6344077;22;45250;-90
2022/01/14 04:10:46;;;;;;;;;5.00;4.00;;;;;10.26;46.62;103502.16;6316713;22;45421;-90
2022/01/14 04:13:18;;;;;;;;;4.00;4.00;;;;;10.24;46.57;103503.94;6344458;22;45670;-90
2022/01/14 04:15:46;;;;;;;;;5.00;4.33;;;;;10.25;46.00;103508.34;6318317;22;45329;-89
2022/01/14 04:18:16;;;;;;;;;3.67;3.00;;;;;10.17;46.25;103489.94;6317945;22;45310;-89
2022/01/14 04:20:47;;;;;;;;;8.33;6.00;;;;;10.24;46.35;103501.28;6344454;22;45333;-90
2022/01/14 04:23:13;;;;;;;;;6.33;4.00;;;;;10.18;45.81;103496.13;6343590;22;47278;-90
2022/01/14 04:25:39;;;;;;;;;5.00;3.00;;;;;10.24;46.11;103511.91;6343975;22;45829;-89
2022/01/14 04:28:05;;;;;;;;;4.00;3.00;;;;;10.18;46.19;103506.75;6345148;22;45396;-90
2022/01/14 04:30:30;;;;;;;;;3.67;2.33;;;;;10.28;46.24;103524.22;6345292;22;45480;-90
2022/01/14 04:32:57;;;;;;;;;3.33;3.33;;;;;10.15;46.18;103496.19;6344372;22;46874;-88
2022/01/14 04:35:23;;;;;;;;;3.00;2.00;;;;;10.34;46.19;103537.34;6318493;22;45431;-89
2022/01/14 04:37:49;;;;;;;;;4.67;4.67;;;;;10.15;46.67;103501.50;6345314;22;45309;-89
2022/01/14 04:40:15;;;;;;;;;2.33;2.33;;;;;10.28;46.51;103518.03;6344809;22;45587;-89
2022/01/14 04:42:44;;;;;;;;;5.00;4.00;;;;;10.11;46.79;103501.56;6371119;22;46043;-89
2022/01/14 04:45:25;;;;;;;;;3.00;2.00;;;;;10.16;46.66;103501.44;6319573;22;45491;-89
2022/01/14 04:47:50;;;;;;;;;2.33;2.00;;;;;10.08;46.54;103477.75;6346748;22;45603;-89
2022/01/14 04:50:17;;;;;;;;;5.33;4.00;;;;;10.33;46.57;103517.00;6318231;22;45273;-89
2022/01/14 04:52:45;;;;;;;;;4.67;4.00;;;;;10.19;46.49;103497.84;6370213;22;47093;-90
2022/01/14 04:55:11;;;;;;;;;4.33;2.00;;;;;10.09;46.23;103475.97;6345127;22;45430;-89
2022/01/14 04:57:36;;;;;;;;;3.33;3.00;;;;;10.15;46.16;103482.94;6318467;22;45338;-89
2022/01/14 05:00:07;;;;;;;;;5.33;4.00;;;;;10.21;46.83;103501.38;6318156;22;45360;-89
2022/01/14 05:02:32;;;;;;;;;5.00;4.00;;;;;10.14;46.53;103487.34;6317936;22;47866;-90
2022/01/14 05:04:59;;;;;;;;;2.00;2.00;;;;;10.16;46.02;103482.00;6318270;22;45295;-90
2022/01/14 05:07:26;;;;;;;;;4.00;4.00;;;;;10.07;46.70;103468.03;6345416;22;45362;-89
2022/01/14 05:10:08;;;;;;;;;3.00;2.00;;;;;10.07;46.52;103464.53;6317791;22;45504;-90
2022/01/14 05:12:34;;;;;;;;;4.00;3.00;;;;;10.22;46.85;103492.50;6348304;22;47063;-90
2022/01/14 05:14:59;;;;;;;;;2.00;2.00;;;;;10.00;46.45;103447.84;6317882;22;45539;-90
2022/01/14 05:17:25;;;;;;;;;3.00;3.00;;;;;10.09;46.49;103468.88;6344872;22;45349;-90
2022/01/14 05:19:50;;;;;;;;;4.67;4.00;;;;;10.14;46.66;103475.84;6369529;22;45323;-89
2022/01/14 05:22:17;;;;;;;;;3.00;3.00;;;;;10.06;46.67;103460.13;6370567;22;45849;-90
2022/01/14 05:24:43;;;;;;;;;8.67;3.00;;;;;10.09;46.26;103468.88;6397336;22;45640;-89
2022/01/14 05:27:08;;;;;;;;;2.33;2.33;;;;;10.00;46.75;103450.50;6318127;22;45289;-90
2022/01/14 05:29:34;;;;;;;;;5.33;4.00;;;;;10.16;46.10;103476.69;6317111;22;45491;-89
2022/01/14 05:32:09;;;;;;;;;2.00;2.00;;;;;10.04;46.31;103462.78;6317930;22;46178;-89
2022/01/14 05:34:35;;;;;;;;;3.33;3.33;;;;;10.02;46.18;103459.28;6321667;22;45716;-90
2022/01/14 05:37:01;;;;;;;;;4.00;2.67;;;;;9.97;46.75;103458.53;6317883;22;45237;-90
2022/01/14 05:39:26;;;;;;;;;6.00;4.67;;;;;10.05;46.72;103477.81;6345300;22;45519;-90
2022/01/14 05:41:52;;;;;;;;;3.67;3.67;;;;;10.14;46.24;103486.47;6344365;22;46887;-91
2022/01/14 05:44:18;;;;;;;;;4.00;2.00;;;;;10.06;46.21;103471.59;6344425;22;45199;-89
2022/01/14 05:46:43;;;;;;;;;4.67;3.67;;;;;10.03;46.48;103465.47;6317769;22;45654;-89
2022/01/14 05:49:09;;;;;;;;;2.33;2.33;;;;;10.10;47.02;103478.56;6318345;22;45412;-89
2022/01/14 05:51:34;;;;;;;;;1.67;1.00;;;;;9.96;46.45;103459.41;6343554;22;46843;-89
2022/01/14 05:54:00;;;;;;;;;2.00;2.00;;;;;10.04;46.86;103468.09;6318122;22;45321;-90
2022/01/14 05:56:25;;;;;;;;;4.67;2.33;;;;;10.15;46.64;103485.56;6343672;22;45325;-89
2022/01/14 05:58:51;;;;;;;;;3.00;2.00;;;;;10.03;46.12;103468.13;6343271;22;45398;-89
2022/01/14 06:01:16;;;;;;;;;3.00;3.00;;;;;9.98;46.21;103460.28;6316596;22;48139;-89
2022/01/14 06:03:41;;;;;;;;;3.00;3.00;;;;;10.13;46.48;103479.44;6345372;22;45393;-87
2022/01/14 06:06:07;;;;;;;;;4.33;2.33;;;;;10.18;46.57;103490.81;6345427;22;45370;-88
2022/01/14 06:08:32;;;;;;;;;3.33;3.00;;;;;9.97;47.33;103458.53;6345783;22;45567;-88
2022/01/14 06:10:59;;;;;;;;;4.00;2.00;;;;;10.03;46.68;103463.72;6372619;22;45257;-90
2022/01/14 06:13:24;;;;;;;;;1.67;1.67;;;;;10.11;46.77;103490.94;6344896;22;45217;-90
2022/01/14 06:15:50;;;;;;;;;4.00;3.00;;;;;10.06;46.85;103476.03;6345915;22;45293;-89
2022/01/14 06:18:15;;;;;;;;;3.00;1.00;;;;;9.87;46.72;103434.84;6345625;22;45392;-90
2022/01/14 06:20:40;;;;;;;;;4.33;2.00;;;;;9.96;46.58;103459.41;6344055;22;46073;-89
2022/01/14 06:23:06;;;;;;;;;1.67;1.67;;;;;10.08;46.29;103477.75;6343557;22;45512;-89
2022/01/14 06:25:31;;;;;;;;;4.00;3.00;;;;;9.99;46.58;103462.00;6344986;22;45233;-88
2022/01/14 06:27:57;;;;;;;;;3.67;3.00;;;;;9.92;46.88;103447.16;6345177;22;45195;-88
2022/01/14 06:30:22;;;;;;;;;5.33;3.33;;;;;9.94;46.60;103456.81;6344938;22;46076;-88
2022/01/14 06:32:51;;;;;;;;;2.67;2.67;;;;;9.84;46.49;103440.19;6370078;22;45396;-88
2022/01/14 06:35:17;;;;;;;;;3.00;2.00;;;;;9.89;46.78;103442.78;6343923;22;45402;-88
2022/01/14 06:37:42;;;;;;;;;2.00;1.00;;;;;10.05;46.97;103475.16;6343761;22;45283;-89
2022/01/14 06:40:09;;;;;;;;;3.00;2.00;;;;;9.92;47.13;103448.03;6344032;22;46814;-89
2022/01/14 06:42:34;;;;;;;;;3.00;3.00;;;;;10.03;46.92;103463.72;6368886;22;45312;-88
2022/01/14 06:45:00;;;;;;;;;3.00;2.00;;;;;9.87;46.89;103445.44;6316798;22;45650;-88
2022/01/14 06:47:26;;;;;;;;;2.00;2.00;;;;;10.04;46.53;103478.69;6369229;22;45260;-89
2022/01/14 06:49:51;;;;;;;;;2.00;2.00;;;;;9.95;46.68;103455.03;6344158;22;45426;-89
2022/01/14 06:52:17;;;;;;;;;4.00;2.67;;;;;10.08;47.16;103484.81;6344080;22;45380;-90
2022/01/14 06:54:42;;;;;;;;;3.33;3.33;;;;;9.88;47.06;103452.50;6344556;22;45245;-90
2022/01/14 06:57:08;;;;;;;;;2.33;2.00;;;;;9.95;47.19;103453.25;6344838;22;45210;-90
2022/01/14 06:59:33;;;;;;;;;0.33;0.33;;;;;10.05;47.53;103464.53;6318110;22;47132;-91
2022/01/14 07:01:59;;;;;;;;;1.67;1.67;;;;;10.08;48.01;103461.81;6343715;22;45497;-92
2022/01/14 07:34:48;;;;;;;;;;;;;;;;;;;;;
2022/01/14 07:53:07;;;;;;;;;3.67;2.33;;;;;11.51;47.52;103489.47;6333177;22;47135;-94
2022/01/14 08:07:44;;;;;;;;;;;;;;;;;;;;;
2022/01/14 08:10:16;;;;;;;;;5.00;3.33;;;;;11.67;46.99;103473.09;6372477;22;72865;-92
2022/01/14 08:26:42;;;;;;;;;1.67;1.67;;;;;11.78;46.25;103492.28;6355779;22;46978;-92
2022/01/14 09:48:27;;;;;;;;;3.33;3.33;;;;;11.40;45.71;103503.94;6351577;22;46386;-89
2022/01/14 09:50:58;;;;;;;;;7.33;5.00;;;;;11.36;45.65;103496.94;6369329;22;45299;-90
2022/01/14 09:53:47;;;;;;;;;4.67;4.67;;;;;11.47;45.93;103515.28;6344550;22;47069;-90
2022/01/14 09:56:42;;;;;;;;;3.00;3.00;;;;;11.64;45.65;103549.41;6370832;22;45469;-91
2022/01/14 10:00:18;;;;;;;;;8.00;5.33;;;;;11.38;46.00;103500.44;6397926;22;45592;-90
2022/01/14 10:11:21;;;;;;;;;7.67;4.67;;;;;11.40;45.96;103495.94;6208276;22;45334;-91
2022/01/14 10:14:48;;;;;;;;;5.00;4.00;;;;;11.67;45.50;103534.28;6087785;23;45289;-90
2022/01/14 10:21:16;;;;;;;;;5.33;5.33;;;;;11.67;46.14;103542.25;5950204;23;45518;-90
2022/01/14 10:32:00;;;;;;;;;4.67;4.67;;;;;11.69;46.23;103535.97;5916857;24;45367;-90
2022/01/14 10:35:26;;;;;;;;;3.00;3.00;;;;;11.55;46.09;103507.09;5779989;24;46284;-90
2022/01/14 10:39:03;;;;;;;;;;;;;;;;;;;;;
2022/01/14 10:49:06;;;;;;;;;;;;;;;;;;;;;
2022/01/14 10:56:27;;;;;;;;;;;;;;;;;;;;;
2022/01/14 10:59:30;;;;;;;;;;;;;;;;;;;;;
2022/01/14 11:02:38;;;;;;;;;5.00;5.00;;;;;11.53;46.45;103461.06;5789586;24;74097;-91
2022/01/14 11:08:41;;;;;;;;;3.67;3.67;;;;;11.70;46.38;103478.34;5804460;24;45570;-89
2022/01/14 11:11:10;;;;;;;;;2.00;2.00;;;;;11.76;46.47;103487.00;5799910;24;45473;-90
2022/01/14 11:14:04;;;;;;;;;3.67;3.67;;;;;11.63;46.68;103457.22;5802785;24;46534;-90
2022/01/14 11:16:35;;;;;;;;;3.33;3.33;;;;;11.74;46.81;103472.00;5800038;24;45481;-90
2022/01/14 11:19:35;;;;;;;;;4.67;4.67;;;;;11.64;47.14;103452.78;5825856;24;45414;-90
2022/01/14 11:25:50;;;;;;;;;3.00;3.00;;;;;11.93;46.79;103484.78;5869961;24;45771;-90
2022/01/14 11:28:42;;;;;;;;;5.67;4.00;;;;;11.91;46.53;103481.28;5891059;24;45434;-90
2022/01/14 11:32:09;;;;;;;;;;;;;;;;;;;;;
2022/01/14 11:34:54;;;;;;;;;5.00;4.67;;;;;11.93;46.89;103474.16;6025378;23;70021;-88
2022/01/14 11:37:46;;;;;;;;;4.00;4.00;;;;;11.90;46.85;103458.28;6087007;23;46796;-90
2022/01/14 11:40:13;;;;;;;;;6.00;3.33;;;;;11.94;46.93;103455.47;6065001;23;45455;-90
2022/01/14 11:43:26;;;;;;;;;3.00;3.00;;;;;11.93;46.65;103439.56;6040270;23;45619;-90
2022/01/14 11:46:10;;;;;;;;;4.33;4.33;;;;;12.19;47.26;103492.00;6171128;22;45298;-89
2022/01/14 11:48:59;;;;;;;;;;;;;;;;;;;;;
2022/01/14 11:52:09;;;;;;;;;5.00;5.00;;;;;11.97;47.09;103443.84;6217818;22;72937;-90
2022/01/14 11:54:48;;;;;;;;;3.33;3.33;;;;;11.97;46.93;103441.19;6206896;22;45436;-91
2022/01/14 11:57:45;;;;;;;;;4.00;4.00;;;;;12.28;47.08;103482.88;6207229;22;45785;-90
2022/01/14 12:00:38;;;;;;;;;7.00;5.33;;;;;12.30;46.78;103481.06;6147799;22;46858;-91
2022/01/14 12:03:36;;;;;;;;;5.67;4.67;;;;;12.27;46.97;103457.19;6266759;22;45269;-90
2022/01/14 12:06:11;;;;;;;;;4.00;4.00;;;;;12.35;46.89;103464.06;6242705;22;45536;-90
2022/01/14 12:08:47;;;;;;;;;7.00;6.33;;;;;12.20;47.31;103434.34;6216819;22;45481;-90
2022/01/14 12:11:52;;;;;;;;;;;;;;;;;;;;;
2022/01/14 12:14:36;;;;;;;;;4.00;4.00;;;;;12.23;47.31;103428.03;6248628;22;74324;-91
2022/01/14 12:17:17;;;;;;;;;4.00;4.00;;;;;12.18;46.67;103414.88;6192657;22;45509;-91
2022/01/14 12:19:47;;;;;;;;;6.00;5.00;;;;;12.19;47.27;103400.66;6242686;22;45694;-90
2022/01/14 12:22:27;;;;;;;;;4.33;4.00;;;;;12.31;47.30;103416.22;6214822;22;45452;-90
2022/01/14 12:25:00;;;;;;;;;8.00;4.00;;;;;12.35;47.31;103408.16;6230057;22;45394;-90
2022/01/14 12:27:36;;;;;;;;;5.67;4.67;;;;;12.48;47.29;103421.97;6231434;22;45548;-90
2022/01/14 12:30:21;;;;;;;;;3.67;3.67;;;;;12.35;47.24;103394.84;6204616;22;45319;-90
2022/01/14 12:33:20;;;;;;;;;6.00;6.00;;;;;12.57;47.12;103426.09;6216017;22;46858;-91
2022/01/14 12:35:57;;;;;;;;;5.33;3.00;;;;;12.34;47.24;103374.44;6219238;22;45844;-89
2022/01/14 12:38:25;;;;;;;;;4.00;4.00;;;;;12.41;47.00;103384.00;6217894;22;45442;-92
2022/01/14 12:41:04;;;;;;;;;4.00;4.00;;;;;12.56;47.03;103403.06;6217929;22;45349;-90
2022/01/14 12:43:30;;;;;;;;;4.67;4.00;;;;;12.53;47.68;103396.88;6218059;22;46951;-89
2022/01/14 12:46:12;;;;;;;;;3.67;3.00;;;;;12.59;47.22;103402.97;6236145;22;45592;-90
2022/01/14 12:48:46;;;;;;;;;7.00;3.00;;;;;12.61;47.35;103399.31;6350927;22;45289;-89
2022/01/14 12:51:19;;;;;;;;;4.67;3.00;;;;;12.51;47.50;103380.09;6399229;22;45295;-89
2022/01/14 12:53:58;;;;;;;;;5.00;5.00;;;;;12.63;47.58;103397.47;6424636;22;47142;-90
2022/01/14 12:56:26;;;;;;;;;0.67;0.00;;;;;12.61;47.45;103396.66;6397467;22;45265;-90
2022/01/14 12:59:09;;;;;;;;;2.00;2.00;;;;;12.72;47.45;103404.28;6371008;22;45645;-90
2022/01/14 13:01:42;;;;;;;;;2.00;2.00;;;;;12.55;47.30;103380.00;6398246;22;45479;-90
2022/01/14 13:04:11;;;;;;;;;3.00;2.00;;;;;12.68;47.37;103389.31;6371198;22;45956;-90
2022/01/14 13:07:03;;;;;;;;;2.75;2.50;;;;;12.71;47.55;103381.22;6343603;22;45396;-89
2022/01/14 13:09:30;;;;;;;;;3.00;2.67;;;;;12.80;47.41;103395.13;6390447;22;45853;-89
2022/01/14 13:12:00;;;;;;;;;5.67;3.00;;;;;12.81;47.78;103391.56;6397214;22;45530;-90
2022/01/14 13:14:40;;;;;;;;;5.33;4.00;;;;;12.83;47.80;103392.38;6396301;22;47026;-88
2022/01/14 13:17:14;;;;;;;;;5.33;4.00;;;;;12.72;47.68;103366.97;6371006;22;45461;-88
2022/01/14 13:19:40;;;;;;;;;4.00;4.00;;;;;12.70;47.43;103358.19;6370576;22;45402;-89
2022/01/14 13:22:10;;;;;;;;;7.00;6.67;;;;;12.74;47.66;103354.47;6370184;22;45333;-88
2022/01/14 13:24:37;;;;;;;;;4.00;4.00;;;;;12.77;47.32;103339.28;6397781;22;46346;-88
2022/01/14 13:27:19;;;;;;;;;4.67;4.67;;;;;12.89;47.71;103357.53;6370502;22;45254;-88
2022/01/14 13:29:47;;;;;;;;;4.00;4.00;;;;;12.77;47.36;103336.63;6345503;22;45438;-90
2022/01/14 13:32:15;;;;;;;;;4.00;4.00;;;;;12.75;47.32;103329.59;6397003;22;45536;-89
2022/01/14 13:34:48;;;;;;;;;5.00;5.00;;;;;12.78;47.47;103331.28;6368867;22;48010;-88
2022/01/14 13:37:16;;;;;;;;;4.67;4.33;;;;;12.75;47.59;103323.38;6398910;22;45662;-89
2022/01/14 13:39:41;;;;;;;;;4.67;3.00;;;;;12.75;47.75;103313.59;6370205;22;45458;-91
2022/01/14 13:42:20;;;;;;;;;3.00;3.00;;;;;12.79;47.45;103313.50;6344231;22;45690;-88
2022/01/14 13:44:46;;;;;;;;;3.25;3.25;;;;;12.77;47.71;103304.66;6369649;22;45400;-91
2022/01/14 13:47:18;;;;;;;;;5.00;4.00;;;;;12.89;47.56;103316.69;6369850;22;45340;-88
2022/01/14 13:49:43;;;;;;;;;4.00;3.33;;;;;12.84;47.84;103303.53;6369513;22;45336;-88
2022/01/14 13:52:12;;;;;;;;;3.00;3.00;;;;;13.03;47.48;103334.84;6370041;22;45490;-88
2022/01/14 13:54:38;;;;;;;;;5.00;5.00;;;;;12.95;47.69;103320.00;6396667;22;45598;-88
2022/01/14 13:57:23;;;;;;;;;6.33;6.33;;;;;13.05;47.68;103325.00;6369972;22;45238;-88
2022/01/14 13:59:49;;;;;;;;;5.00;4.00;;;;;13.03;47.88;103321.50;6344071;22;45515;-85
2022/01/14 14:02:26;;;;;;;;;4.00;4.00;;;;;13.08;47.37;103322.25;6370238;22;45419;-85
2022/01/14 14:04:54;;;;;;;;;5.00;5.00;;;;;13.09;47.95;103321.28;6396881;22;45610;-89
2022/01/14 14:07:21;;;;;;;;;4.33;4.33;;;;;13.07;47.82;103304.50;6371271;22;45300;-90
2022/01/14 14:10:08;;;;;;;;;2.67;2.67;;;;;13.13;47.37;103311.41;6370907;22;45250;-90
2022/01/14 14:12:44;;;;;;;;;5.67;5.67;;;;;13.11;47.89;103303.44;6373114;22;45538;-89
2022/01/14 14:18:04;;;;;;;;;3.00;2.00;;;;;13.15;47.15;103307.75;6375376;22;45315;-87
2022/01/14 14:20:29;;;;;;;;;3.25;3.25;;;;;13.10;47.20;103301.72;6371491;22;45328;-86
2022/01/14 14:22:55;;;;;;;;;5.00;5.00;;;;;13.13;47.95;103300.72;6342699;22;45403;-87
2022/01/14 14:25:26;;;;;;;;;5.00;4.33;;;;;13.01;47.66;103267.41;6370276;22;45983;-89
2022/01/14 14:27:55;;;;;;;;;5.67;5.67;;;;;13.23;47.82;103298.56;6370617;22;45384;-88
2022/01/14 14:30:20;;;;;;;;;3.00;3.00;;;;;13.17;48.05;103289.88;6397518;22;45358;-88
2022/01/14 14:32:46;;;;;;;;;3.00;3.00;;;;;13.10;47.64;103279.53;6370339;22;45458;-88
2022/01/14 14:35:15;;;;;;;;;4.50;3.75;;;;;13.02;47.66;103261.16;6396461;22;47422;-88
2022/01/14 14:37:41;;;;;;;;;4.00;3.50;;;;;13.28;47.92;103299.28;6344700;22;45471;-87
2022/01/14 14:40:13;;;;;;;;;2.25;2.25;;;;;13.06;47.79;103260.09;6398028;22;45392;-88
2022/01/14 14:42:38;;;;;;;;;5.33;4.33;;;;;13.30;47.95;103286.78;6397319;22;45293;-88
2022/01/14 14:45:04;;;;;;;;;3.50;3.50;;;;;13.23;47.91;103270.13;6398108;22;49841;-87
2022/01/14 14:47:29;;;;;;;;;4.75;3.75;;;;;13.19;47.37;103269.34;6370472;22;45455;-87
2022/01/14 14:49:55;;;;;;;;;5.00;4.75;;;;;13.19;47.88;103264.03;6343193;22;45387;-87
2022/01/14 14:52:21;;;;;;;;;4.00;4.00;;;;;13.29;47.97;103279.69;6370472;22;45342;-87
2022/01/14 14:54:47;;;;;;;;;5.00;3.75;;;;;13.21;47.82;103271.13;6371056;22;45370;-88
2022/01/14 14:57:12;;;;;;;;;6.00;4.00;;;;;13.34;47.91;103293.72;6371077;22;45562;-87
2022/01/14 14:59:38;;;;;;;;;4.00;4.00;;;;;13.33;47.30;103286.66;6369880;22;45264;-87
2022/01/14 15:02:05;;;;;;;;;5.00;5.00;;;;;13.37;47.62;103298.94;6370715;22;45395;-87
2022/01/14 15:04:30;;;;;;;;;5.75;4.50;;;;;13.22;47.89;103254.19;6371146;22;46412;-87
2022/01/14 15:06:56;;;;;;;;;6.33;6.00;;;;;13.41;47.78;103295.22;6396641;22;46383;-87
2022/01/14 15:09:21;;;;;;;;;7.00;5.00;;;;;13.31;47.94;103272.50;6370669;22;45355;-87
2022/01/14 15:11:47;;;;;;;;;4.00;4.00;;;;;13.45;47.48;103290.66;6343207;22;45256;-87
2022/01/14 15:14:12;;;;;;;;;3.00;3.00;;;;;13.30;47.43;103271.66;6369694;22;47246;-88
2022/01/14 15:17:09;;;;;;;;;6.75;4.00;;;;;13.33;47.35;103273.31;6369933;22;45440;-87
2022/01/14 15:19:34;;;;;;;;;3.00;3.00;;;;;13.31;47.81;103261.81;6377023;22;45345;-87
2022/01/14 15:21:59;;;;;;;;;5.67;4.33;;;;;13.45;47.96;103284.44;6344279;22;45274;-87
2022/01/14 15:24:25;;;;;;;;;4.00;4.00;;;;;13.31;48.01;103251.16;6397567;22;45370;-87
2022/01/14 15:26:50;;;;;;;;;5.00;3.50;;;;;13.45;48.07;103279.09;6370066;22;45347;-88
2022/01/14 15:29:16;;;;;;;;;6.00;5.00;;;;;13.43;47.68;103264.94;6370276;22;45288;-87
2022/01/14 15:31:41;;;;;;;;;5.00;5.00;;;;;13.48;47.49;103276.31;6343829;22;45410;-87